sensor_id;sensor_type;location;lat;lon;timestamp;P1;durP1;ratioP1;P2;durP2;ratioP2
39140;SDS011;24875;48.436;10.298;2023-02-18T00:00:43;3.40;;;1.47;;
39140;SDS011;24875;48.436;10.298;2023-02-18T00:03:09;5.93;;;3.00;;
39140;SDS011;24875;48.436;10.298;2023-02-18T00:05:36;2.60;;;1.60;;
39140;SDS011;24875;48.436;10.298;2023-02-18T00:08:02;4.90;;;1.67;;
39140;SDS011;24875;48.436;10.298;2023-02-18T00:10:29;2.00;;;1.07;;
39140;SDS011;24875;48.436;10.298;2023-02-18T00:12:55;1.83;;;1.27;;
39140;SDS011;24875;48.436;10.298;2023-02-18T00:15:22;4.00;;;1.70;;
39140;SDS011;24875;48.436;10.298;2023-02-18T00:17:50;2.33;;;1.43;;
39140;SDS011;24875;48.436;10.298;2023-02-18T00:20:16;3.67;;;1.80;;
39140;SDS011;24875;48.436;10.298;2023-02-18T00:22:43;2.50;;;1.70;;
39140;SDS011;24875;48.436;10.298;2023-02-18T00:25:09;2.00;;;1.20;;
39140;SDS011;24875;48.436;10.298;2023-02-18T00:27:36;3.20;;;1.67;;
39140;SDS011;24875;48.436;10.298;2023-02-18T00:30:02;3.27;;;1.50;;
39140;SDS011;24875;48.436;10.298;2023-02-18T00:32:29;4.80;;;1.50;;
39140;SDS011;24875;48.436;10.298;2023-02-18T00:34:57;3.47;;;1.80;;
39140;SDS011;24875;48.436;10.298;2023-02-18T00:37:24;2.13;;;1.47;;
39140;SDS011;24875;48.436;10.298;2023-02-18T00:39:50;2.43;;;1.30;;
39140;SDS011;24875;48.436;10.298;2023-02-18T00:42:17;3.00;;;1.47;;
39140;SDS011;24875;48.436;10.298;2023-02-18T00:44:43;7.07;;;1.17;;
39140;SDS011;24875;48.436;10.298;2023-02-18T00:47:10;3.70;;;1.70;;
39140;SDS011;24875;48.436;10.298;2023-02-18T00:49:36;3.00;;;1.23;;
39140;SDS011;24875;48.436;10.298;2023-02-18T00:52:04;2.93;;;2.00;;
39140;SDS011;24875;48.436;10.298;2023-02-18T00:54:31;3.10;;;1.53;;
39140;SDS011;24875;48.436;10.298;2023-02-18T00:56:57;2.17;;;1.30;;
39140;SDS011;24875;48.436;10.298;2023-02-18T00:59:24;2.67;;;1.60;;
39140;SDS011;24875;48.436;10.298;2023-02-18T01:01:50;3.50;;;1.43;;
39140;SDS011;24875;48.436;10.298;2023-02-18T01:04:17;1.90;;;1.10;;
39140;SDS011;24875;48.436;10.298;2023-02-18T01:06:43;3.00;;;1.20;;
39140;SDS011;24875;48.436;10.298;2023-02-18T01:09:11;2.97;;;1.20;;
39140;SDS011;24875;48.436;10.298;2023-02-18T01:11:38;2.40;;;1.40;;
39140;SDS011;24875;48.436;10.298;2023-02-18T01:14:04;1.60;;;1.30;;
39140;SDS011;24875;48.436;10.298;2023-02-18T01:16:30;3.97;;;2.03;;
39140;SDS011;24875;48.436;10.298;2023-02-18T01:18:57;1.77;;;1.20;;
39140;SDS011;24875;48.436;10.298;2023-02-18T01:21:23;1.53;;;1.20;;
39140;SDS011;24875;48.436;10.298;2023-02-18T01:23:50;1.80;;;1.00;;
39140;SDS011;24875;48.436;10.298;2023-02-18T01:26:18;2.70;;;1.30;;
39140;SDS011;24875;48.436;10.298;2023-02-18T01:28:44;4.73;;;1.30;;
39140;SDS011;24875;48.436;10.298;2023-02-18T01:31:12;2.37;;;1.40;;
39140;SDS011;24875;48.436;10.298;2023-02-18T01:33:39;1.03;;;0.90;;
39140;SDS011;24875;48.436;10.298;2023-02-18T01:36:07;3.10;;;1.07;;
39140;SDS011;24875;48.436;10.298;2023-02-18T01:38:35;2.23;;;1.60;;
39140;SDS011;24875;48.436;10.298;2023-02-18T01:41:02;2.20;;;1.20;;
39140;SDS011;24875;48.436;10.298;2023-02-18T01:43:30;2.63;;;1.27;;
39140;SDS011;24875;48.436;10.298;2023-02-18T01:46:10;4.07;;;1.87;;
39140;SDS011;24875;48.436;10.298;2023-02-18T01:48:40;4.40;;;1.83;;
39140;SDS011;24875;48.436;10.298;2023-02-18T01:51:10;3.57;;;1.60;;
39140;SDS011;24875;48.436;10.298;2023-02-18T01:53:40;2.97;;;1.40;;
39140;SDS011;24875;48.436;10.298;2023-02-18T01:56:13;2.13;;;1.37;;
39140;SDS011;24875;48.436;10.298;2023-02-18T01:58:46;5.73;;;1.67;;
39140;SDS011;24875;48.436;10.298;2023-02-18T02:01:14;2.90;;;1.37;;
39140;SDS011;24875;48.436;10.298;2023-02-18T02:03:41;2.70;;;1.60;;
39140;SDS011;24875;48.436;10.298;2023-02-18T02:06:10;2.67;;;1.67;;
39140;SDS011;24875;48.436;10.298;2023-02-18T02:08:42;3.57;;;1.40;;
39140;SDS011;24875;48.436;10.298;2023-02-18T02:11:13;3.93;;;1.90;;
39140;SDS011;24875;48.436;10.298;2023-02-18T02:13:52;3.23;;;1.73;;
39140;SDS011;24875;48.436;10.298;2023-02-18T02:16:29;1.83;;;1.43;;
39140;SDS011;24875;48.436;10.298;2023-02-18T02:19:03;3.23;;;1.73;;
39140;SDS011;24875;48.436;10.298;2023-02-18T02:25:01;1.90;;;1.23;;
39140;SDS011;24875;48.436;10.298;2023-02-18T02:27:47;3.80;;;2.00;;
39140;SDS011;24875;48.436;10.298;2023-02-18T02:30:43;3.80;;;2.27;;
39140;SDS011;24875;48.436;10.298;2023-02-18T02:36:27;2.10;;;1.43;;
39140;SDS011;24875;48.436;10.298;2023-02-18T02:39:02;4.17;;;1.40;;
39140;SDS011;24875;48.436;10.298;2023-02-18T02:41:41;1.40;;;0.87;;
39140;SDS011;24875;48.436;10.298;2023-02-18T02:44:14;1.57;;;1.30;;
39140;SDS011;24875;48.436;10.298;2023-02-18T02:46:46;2.57;;;1.67;;
39140;SDS011;24875;48.436;10.298;2023-02-18T02:49:18;2.07;;;1.30;;
39140;SDS011;24875;48.436;10.298;2023-02-18T02:51:57;2.80;;;1.40;;
39140;SDS011;24875;48.436;10.298;2023-02-18T02:54:29;2.47;;;1.37;;
39140;SDS011;24875;48.436;10.298;2023-02-18T02:57:03;3.13;;;1.20;;
39140;SDS011;24875;48.436;10.298;2023-02-18T02:59:32;1.40;;;1.00;;
39140;SDS011;24875;48.436;10.298;2023-02-18T03:02:07;2.03;;;1.10;;
39140;SDS011;24875;48.436;10.298;2023-02-18T03:04:53;3.20;;;1.50;;
39140;SDS011;24875;48.436;10.298;2023-02-18T03:07:40;1.37;;;1.00;;
39140;SDS011;24875;48.436;10.298;2023-02-18T03:10:28;4.97;;;1.53;;
39140;SDS011;24875;48.436;10.298;2023-02-18T03:13:08;2.13;;;1.27;;
39140;SDS011;24875;48.436;10.298;2023-02-18T03:15:43;3.10;;;1.30;;
39140;SDS011;24875;48.436;10.298;2023-02-18T03:18:16;1.70;;;1.37;;
39140;SDS011;24875;48.436;10.298;2023-02-18T03:20:51;1.97;;;1.40;;
39140;SDS011;24875;48.436;10.298;2023-02-18T03:23:23;2.60;;;1.40;;
39140;SDS011;24875;48.436;10.298;2023-02-18T03:25:53;1.87;;;1.23;;
39140;SDS011;24875;48.436;10.298;2023-02-18T03:28:22;4.73;;;1.70;;
39140;SDS011;24875;48.436;10.298;2023-02-18T03:30:53;3.03;;;1.60;;
39140;SDS011;24875;48.436;10.298;2023-02-18T03:33:25;1.27;;;1.07;;
39140;SDS011;24875;48.436;10.298;2023-02-18T03:35:53;6.67;;;1.90;;
39140;SDS011;24875;48.436;10.298;2023-02-18T03:38:25;5.73;;;1.67;;
39140;SDS011;24875;48.436;10.298;2023-02-18T03:40:56;3.73;;;1.70;;
39140;SDS011;24875;48.436;10.298;2023-02-18T03:43:23;3.50;;;1.70;;
39140;SDS011;24875;48.436;10.298;2023-02-18T03:45:49;2.83;;;1.90;;
39140;SDS011;24875;48.436;10.298;2023-02-18T03:48:16;2.77;;;1.60;;
39140;SDS011;24875;48.436;10.298;2023-02-18T03:50:42;5.63;;;1.83;;
39140;SDS011;24875;48.436;10.298;2023-02-18T03:53:09;4.17;;;2.23;;
39140;SDS011;24875;48.436;10.298;2023-02-18T03:55:37;1.73;;;1.33;;
39140;SDS011;24875;48.436;10.298;2023-02-18T03:58:03;4.27;;;1.70;;
39140;SDS011;24875;48.436;10.298;2023-02-18T04:00:30;2.27;;;1.40;;
39140;SDS011;24875;48.436;10.298;2023-02-18T04:02:56;2.37;;;1.53;;
39140;SDS011;24875;48.436;10.298;2023-02-18T04:05:23;3.37;;;1.40;;
39140;SDS011;24875;48.436;10.298;2023-02-18T04:07:49;2.43;;;1.37;;
39140;SDS011;24875;48.436;10.298;2023-02-18T04:10:17;3.87;;;1.60;;
39140;SDS011;24875;48.436;10.298;2023-02-18T04:12:46;1.93;;;1.30;;
39140;SDS011;24875;48.436;10.298;2023-02-18T04:15:12;1.77;;;1.30;;
39140;SDS011;24875;48.436;10.298;2023-02-18T04:17:39;1.90;;;1.30;;
39140;SDS011;24875;48.436;10.298;2023-02-18T04:20:06;1.47;;;1.20;;
39140;SDS011;24875;48.436;10.298;2023-02-18T04:22:33;2.77;;;1.40;;
39140;SDS011;24875;48.436;10.298;2023-02-18T04:25:00;3.77;;;1.10;;
39140;SDS011;24875;48.436;10.298;2023-02-18T04:27:26;3.07;;;1.67;;
39140;SDS011;24875;48.436;10.298;2023-02-18T04:29:54;2.27;;;1.03;;
39140;SDS011;24875;48.436;10.298;2023-02-18T04:32:20;1.70;;;1.07;;
39140;SDS011;24875;48.436;10.298;2023-02-18T04:34:47;1.17;;;0.97;;
39140;SDS011;24875;48.436;10.298;2023-02-18T04:37:13;2.20;;;1.20;;
39140;SDS011;24875;48.436;10.298;2023-02-18T04:39:40;1.27;;;1.10;;
39140;SDS011;24875;48.436;10.298;2023-02-18T04:42:07;2.63;;;0.90;;
39140;SDS011;24875;48.436;10.298;2023-02-18T04:44:34;2.23;;;1.00;;
39140;SDS011;24875;48.436;10.298;2023-02-18T04:47:02;1.90;;;1.20;;
39140;SDS011;24875;48.436;10.298;2023-02-18T04:49:29;1.40;;;0.53;;
39140;SDS011;24875;48.436;10.298;2023-02-18T04:51:55;1.47;;;0.93;;
39140;SDS011;24875;48.436;10.298;2023-02-18T04:54:22;1.20;;;1.10;;
39140;SDS011;24875;48.436;10.298;2023-02-18T04:56:48;2.70;;;1.33;;
39140;SDS011;24875;48.436;10.298;2023-02-18T04:59:15;2.20;;;1.43;;
39140;SDS011;24875;48.436;10.298;2023-02-18T05:01:42;1.47;;;1.03;;
39140;SDS011;24875;48.436;10.298;2023-02-18T05:04:10;2.00;;;1.10;;
39140;SDS011;24875;48.436;10.298;2023-02-18T05:06:36;2.43;;;1.37;;
39140;SDS011;24875;48.436;10.298;2023-02-18T05:09:03;1.70;;;1.00;;
39140;SDS011;24875;48.436;10.298;2023-02-18T05:11:30;2.43;;;1.47;;
39140;SDS011;24875;48.436;10.298;2023-02-18T05:13:57;2.00;;;1.43;;
39140;SDS011;24875;48.436;10.298;2023-02-18T05:16:23;1.90;;;1.30;;
39140;SDS011;24875;48.436;10.298;2023-02-18T05:18:50;1.87;;;1.00;;
39140;SDS011;24875;48.436;10.298;2023-02-18T05:21:17;2.17;;;1.50;;
39140;SDS011;24875;48.436;10.298;2023-02-18T05:23:44;1.77;;;1.30;;
39140;SDS011;24875;48.436;10.298;2023-02-18T05:26:10;2.60;;;1.43;;
39140;SDS011;24875;48.436;10.298;2023-02-18T05:28:37;1.30;;;1.10;;
39140;SDS011;24875;48.436;10.298;2023-02-18T05:31:04;2.37;;;0.93;;
39140;SDS011;24875;48.436;10.298;2023-02-18T05:33:30;1.77;;;1.40;;
39140;SDS011;24875;48.436;10.298;2023-02-18T05:35:57;1.50;;;1.10;;
39140;SDS011;24875;48.436;10.298;2023-02-18T05:38:25;2.53;;;1.13;;
39140;SDS011;24875;48.436;10.298;2023-02-18T05:40:51;1.57;;;0.80;;
39140;SDS011;24875;48.436;10.298;2023-02-18T05:43:18;2.00;;;1.37;;
39140;SDS011;24875;48.436;10.298;2023-02-18T05:45:44;1.37;;;1.07;;
39140;SDS011;24875;48.436;10.298;2023-02-18T05:48:11;1.87;;;0.93;;
39140;SDS011;24875;48.436;10.298;2023-02-18T05:50:37;2.43;;;1.13;;
39140;SDS011;24875;48.436;10.298;2023-02-18T05:53:04;1.77;;;1.20;;
39140;SDS011;24875;48.436;10.298;2023-02-18T05:55:32;2.33;;;1.03;;
39140;SDS011;24875;48.436;10.298;2023-02-18T05:58:01;1.63;;;1.20;;
39140;SDS011;24875;48.436;10.298;2023-02-18T06:00:28;1.60;;;1.20;;
39140;SDS011;24875;48.436;10.298;2023-02-18T06:02:55;2.20;;;1.30;;
39140;SDS011;24875;48.436;10.298;2023-02-18T06:05:22;1.50;;;0.97;;
39140;SDS011;24875;48.436;10.298;2023-02-18T06:07:48;1.73;;;1.13;;
39140;SDS011;24875;48.436;10.298;2023-02-18T06:10:15;1.67;;;1.23;;
39140;SDS011;24875;48.436;10.298;2023-02-18T06:12:43;2.20;;;1.30;;
39140;SDS011;24875;48.436;10.298;2023-02-18T06:15:10;2.03;;;1.27;;
39140;SDS011;24875;48.436;10.298;2023-02-18T06:17:36;2.87;;;1.07;;
39140;SDS011;24875;48.436;10.298;2023-02-18T06:20:03;1.20;;;0.70;;
39140;SDS011;24875;48.436;10.298;2023-02-18T06:22:30;2.47;;;1.50;;
39140;SDS011;24875;48.436;10.298;2023-02-18T06:24:57;1.63;;;1.10;;
39140;SDS011;24875;48.436;10.298;2023-02-18T06:27:23;2.83;;;1.30;;
39140;SDS011;24875;48.436;10.298;2023-02-18T06:29:51;1.57;;;1.10;;
39140;SDS011;24875;48.436;10.298;2023-02-18T06:32:18;1.87;;;1.20;;
39140;SDS011;24875;48.436;10.298;2023-02-18T06:34:44;2.70;;;1.50;;
39140;SDS011;24875;48.436;10.298;2023-02-18T06:37:11;2.83;;;1.70;;
39140;SDS011;24875;48.436;10.298;2023-02-18T06:39:38;2.77;;;1.60;;
39140;SDS011;24875;48.436;10.298;2023-02-18T06:42:04;3.10;;;2.03;;
39140;SDS011;24875;48.436;10.298;2023-02-18T06:44:31;3.33;;;1.37;;
39140;SDS011;24875;48.436;10.298;2023-02-18T06:46:59;1.83;;;1.10;;
39140;SDS011;24875;48.436;10.298;2023-02-18T06:49:25;1.87;;;1.10;;
39140;SDS011;24875;48.436;10.298;2023-02-18T06:51:52;2.40;;;1.30;;
39140;SDS011;24875;48.436;10.298;2023-02-18T06:54:18;1.90;;;1.10;;
39140;SDS011;24875;48.436;10.298;2023-02-18T06:56:45;2.40;;;1.13;;
39140;SDS011;24875;48.436;10.298;2023-02-18T06:59:12;1.60;;;1.10;;
39140;SDS011;24875;48.436;10.298;2023-02-18T07:01:38;1.77;;;0.93;;
39140;SDS011;24875;48.436;10.298;2023-02-18T07:04:06;1.77;;;1.23;;
39140;SDS011;24875;48.436;10.298;2023-02-18T07:06:33;1.23;;;0.93;;
39140;SDS011;24875;48.436;10.298;2023-02-18T07:08:59;1.47;;;0.97;;
39140;SDS011;24875;48.436;10.298;2023-02-18T07:11:26;1.20;;;0.80;;
39140;SDS011;24875;48.436;10.298;2023-02-18T07:13:52;1.10;;;1.00;;
39140;SDS011;24875;48.436;10.298;2023-02-18T07:16:19;5.07;;;1.23;;
39140;SDS011;24875;48.436;10.298;2023-02-18T07:18:45;0.90;;;0.80;;
39140;SDS011;24875;48.436;10.298;2023-02-18T07:21:13;1.50;;;0.97;;
39140;SDS011;24875;48.436;10.298;2023-02-18T07:23:40;1.20;;;0.83;;
39140;SDS011;24875;48.436;10.298;2023-02-18T07:26:07;3.43;;;1.10;;
39140;SDS011;24875;48.436;10.298;2023-02-18T07:28:35;1.40;;;0.97;;
39140;SDS011;24875;48.436;10.298;2023-02-18T07:31:02;1.47;;;0.90;;
39140;SDS011;24875;48.436;10.298;2023-02-18T07:33:30;0.90;;;0.80;;
39140;SDS011;24875;48.436;10.298;2023-02-18T07:35:57;1.30;;;0.77;;
39140;SDS011;24875;48.436;10.298;2023-02-18T07:38:26;2.07;;;1.03;;
39140;SDS011;24875;48.436;10.298;2023-02-18T07:40:53;2.23;;;1.17;;
39140;SDS011;24875;48.436;10.298;2023-02-18T07:43:21;0.97;;;0.80;;
39140;SDS011;24875;48.436;10.298;2023-02-18T07:45:47;2.70;;;1.10;;
39140;SDS011;24875;48.436;10.298;2023-02-18T07:48:14;1.80;;;1.07;;
39140;SDS011;24875;48.436;10.298;2023-02-18T07:50:42;3.53;;;2.40;;
39140;SDS011;24875;48.436;10.298;2023-02-18T07:53:10;2.77;;;1.93;;
39140;SDS011;24875;48.436;10.298;2023-02-18T07:55:39;4.13;;;1.47;;
39140;SDS011;24875;48.436;10.298;2023-02-18T07:58:15;2.43;;;1.73;;
39140;SDS011;24875;48.436;10.298;2023-02-18T08:00:42;2.10;;;1.50;;
39140;SDS011;24875;48.436;10.298;2023-02-18T08:03:11;1.83;;;1.43;;
39140;SDS011;24875;48.436;10.298;2023-02-18T08:05:37;1.77;;;1.30;;
39140;SDS011;24875;48.436;10.298;2023-02-18T08:08:04;2.73;;;1.30;;
39140;SDS011;24875;48.436;10.298;2023-02-18T08:10:31;2.00;;;1.40;;
39140;SDS011;24875;48.436;10.298;2023-02-18T08:12:58;1.47;;;1.10;;
39140;SDS011;24875;48.436;10.298;2023-02-18T08:15:25;3.10;;;1.90;;
39140;SDS011;24875;48.436;10.298;2023-02-18T08:17:51;2.30;;;1.33;;
39140;SDS011;24875;48.436;10.298;2023-02-18T08:20:18;1.90;;;1.40;;
39140;SDS011;24875;48.436;10.298;2023-02-18T08:22:45;1.27;;;0.90;;
39140;SDS011;24875;48.436;10.298;2023-02-18T08:25:11;2.90;;;1.50;;
39140;SDS011;24875;48.436;10.298;2023-02-18T08:27:38;1.37;;;0.67;;
39140;SDS011;24875;48.436;10.298;2023-02-18T08:30:07;2.60;;;1.20;;
39140;SDS011;24875;48.436;10.298;2023-02-18T08:32:34;0.87;;;0.80;;
39140;SDS011;24875;48.436;10.298;2023-02-18T08:35:01;1.17;;;0.97;;
39140;SDS011;24875;48.436;10.298;2023-02-18T08:37:28;1.73;;;1.00;;
39140;SDS011;24875;48.436;10.298;2023-02-18T08:39:54;2.23;;;0.87;;
39140;SDS011;24875;48.436;10.298;2023-02-18T08:42:21;0.73;;;0.70;;
39140;SDS011;24875;48.436;10.298;2023-02-18T08:44:47;2.53;;;0.83;;
39140;SDS011;24875;48.436;10.298;2023-02-18T08:47:15;1.17;;;0.73;;
39140;SDS011;24875;48.436;10.298;2023-02-18T08:49:41;1.47;;;1.13;;
39140;SDS011;24875;48.436;10.298;2023-02-18T08:52:08;1.33;;;1.00;;
39140;SDS011;24875;48.436;10.298;2023-02-18T08:54:35;0.77;;;0.70;;
39140;SDS011;24875;48.436;10.298;2023-02-18T08:57:01;2.23;;;0.97;;
39140;SDS011;24875;48.436;10.298;2023-02-18T08:59:28;0.70;;;0.50;;
39140;SDS011;24875;48.436;10.298;2023-02-18T09:01:54;0.77;;;0.67;;
39140;SDS011;24875;48.436;10.298;2023-02-18T09:04:22;1.03;;;0.80;;
39140;SDS011;24875;48.436;10.298;2023-02-18T09:06:49;1.20;;;0.80;;
39140;SDS011;24875;48.436;10.298;2023-02-18T09:09:16;0.63;;;0.63;;
39140;SDS011;24875;48.436;10.298;2023-02-18T09:11:43;2.30;;;1.20;;
39140;SDS011;24875;48.436;10.298;2023-02-18T09:14:10;1.13;;;0.90;;
39140;SDS011;24875;48.436;10.298;2023-02-18T09:16:37;1.37;;;1.00;;
39140;SDS011;24875;48.436;10.298;2023-02-18T09:19:04;2.27;;;1.10;;
39140;SDS011;24875;48.436;10.298;2023-02-18T09:21:32;1.93;;;1.17;;
39140;SDS011;24875;48.436;10.298;2023-02-18T09:23:59;3.47;;;1.00;;
39140;SDS011;24875;48.436;10.298;2023-02-18T09:26:26;1.00;;;0.80;;
39140;SDS011;24875;48.436;10.298;2023-02-18T09:28:53;0.73;;;0.60;;
39140;SDS011;24875;48.436;10.298;2023-02-18T09:31:22;2.50;;;1.60;;
39140;SDS011;24875;48.436;10.298;2023-02-18T09:33:50;2.30;;;1.50;;
39140;SDS011;24875;48.436;10.298;2023-02-18T09:36:20;2.93;;;2.00;;
39140;SDS011;24875;48.436;10.298;2023-02-18T09:38:48;3.87;;;1.60;;
39140;SDS011;24875;48.436;10.298;2023-02-18T09:41:19;2.63;;;0.90;;
39140;SDS011;24875;48.436;10.298;2023-02-18T09:43:55;3.10;;;1.60;;
39140;SDS011;24875;48.436;10.298;2023-02-18T09:46:25;4.30;;;1.60;;
39140;SDS011;24875;48.436;10.298;2023-02-18T09:48:56;4.70;;;1.70;;
39140;SDS011;24875;48.436;10.298;2023-02-18T09:51:26;3.03;;;1.33;;
39140;SDS011;24875;48.436;10.298;2023-02-18T09:53:53;2.47;;;1.13;;
39140;SDS011;24875;48.436;10.298;2023-02-18T09:56:21;2.77;;;1.10;;
39140;SDS011;24875;48.436;10.298;2023-02-18T09:58:52;1.93;;;0.90;;
39140;SDS011;24875;48.436;10.298;2023-02-18T10:01:21;2.33;;;1.23;;
39140;SDS011;24875;48.436;10.298;2023-02-18T10:03:53;3.73;;;0.97;;
39140;SDS011;24875;48.436;10.298;2023-02-18T10:06:21;6.87;;;1.00;;
39140;SDS011;24875;48.436;10.298;2023-02-18T10:08:51;1.23;;;0.80;;
39140;SDS011;24875;48.436;10.298;2023-02-18T10:11:21;1.10;;;0.70;;
39140;SDS011;24875;48.436;10.298;2023-02-18T10:13:54;0.73;;;0.70;;
39140;SDS011;24875;48.436;10.298;2023-02-18T10:16:21;1.20;;;0.80;;
39140;SDS011;24875;48.436;10.298;2023-02-18T10:18:49;1.63;;;1.07;;
39140;SDS011;24875;48.436;10.298;2023-02-18T10:21:19;1.00;;;0.60;;
39140;SDS011;24875;48.436;10.298;2023-02-18T10:23:51;0.97;;;0.80;;
39140;SDS011;24875;48.436;10.298;2023-02-18T10:26:23;2.63;;;0.83;;
39140;SDS011;24875;48.436;10.298;2023-02-18T10:28:50;3.70;;;1.50;;
39140;SDS011;24875;48.436;10.298;2023-02-18T10:31:17;3.50;;;1.73;;
39140;SDS011;24875;48.436;10.298;2023-02-18T10:33:49;1.07;;;0.80;;
39140;SDS011;24875;48.436;10.298;2023-02-18T10:36:23;1.43;;;0.90;;
39140;SDS011;24875;48.436;10.298;2023-02-18T10:38:58;2.70;;;0.70;;
39140;SDS011;24875;48.436;10.298;2023-02-18T10:41:40;1.07;;;0.73;;
39140;SDS011;24875;48.436;10.298;2023-02-18T10:44:16;2.23;;;0.90;;
39140;SDS011;24875;48.436;10.298;2023-02-18T10:46:49;1.53;;;0.80;;
39140;SDS011;24875;48.436;10.298;2023-02-18T10:49:36;0.87;;;0.80;;
39140;SDS011;24875;48.436;10.298;2023-02-18T10:52:17;1.77;;;0.73;;
39140;SDS011;24875;48.436;10.298;2023-02-18T10:54:50;1.40;;;0.73;;
39140;SDS011;24875;48.436;10.298;2023-02-18T10:57:19;1.47;;;0.77;;
39140;SDS011;24875;48.436;10.298;2023-02-18T10:59:55;1.77;;;0.97;;
39140;SDS011;24875;48.436;10.298;2023-02-18T11:02:26;2.30;;;0.83;;
39140;SDS011;24875;48.436;10.298;2023-02-18T11:04:56;5.13;;;1.20;;
39140;SDS011;24875;48.436;10.298;2023-02-18T11:07:25;1.83;;;0.63;;
39140;SDS011;24875;48.436;10.298;2023-02-18T11:09:56;1.52;;;0.80;;
39140;SDS011;24875;48.436;10.298;2023-02-18T11:12:26;2.33;;;1.03;;
39140;SDS011;24875;48.436;10.298;2023-02-18T11:15:04;0.87;;;0.77;;
39140;SDS011;24875;48.436;10.298;2023-02-18T11:17:33;1.57;;;0.87;;
39140;SDS011;24875;48.436;10.298;2023-02-18T11:20:03;0.90;;;0.63;;
39140;SDS011;24875;48.436;10.298;2023-02-18T11:22:47;1.37;;;0.90;;
39140;SDS011;24875;48.436;10.298;2023-02-18T11:25:19;1.03;;;0.70;;
39140;SDS011;24875;48.436;10.298;2023-02-18T11:27:47;0.53;;;0.53;;
39140;SDS011;24875;48.436;10.298;2023-02-18T11:30:18;0.57;;;0.50;;
39140;SDS011;24875;48.436;10.298;2023-02-18T11:32:48;1.13;;;0.70;;
39140;SDS011;24875;48.436;10.298;2023-02-18T11:35:17;1.93;;;0.70;;
39140;SDS011;24875;48.436;10.298;2023-02-18T11:37:45;1.52;;;0.70;;
39140;SDS011;24875;48.436;10.298;2023-02-18T11:40:19;0.90;;;0.70;;
39140;SDS011;24875;48.436;10.298;2023-02-18T11:42:48;1.10;;;0.80;;
39140;SDS011;24875;48.436;10.298;2023-02-18T11:45:25;2.27;;;0.60;;
39140;SDS011;24875;48.436;10.298;2023-02-18T11:47:57;1.80;;;0.93;;
39140;SDS011;24875;48.436;10.298;2023-02-18T11:50:25;2.10;;;0.87;;
39140;SDS011;24875;48.436;10.298;2023-02-18T11:52:55;0.53;;;0.50;;
39140;SDS011;24875;48.436;10.298;2023-02-18T11:55:25;0.98;;;0.70;;
39140;SDS011;24875;48.436;10.298;2023-02-18T11:57:55;1.40;;;0.80;;
39140;SDS011;24875;48.436;10.298;2023-02-18T12:00:24;2.33;;;1.40;;
39140;SDS011;24875;48.436;10.298;2023-02-18T12:03:03;0.70;;;0.70;;
39140;SDS011;24875;48.436;10.298;2023-02-18T12:05:39;2.20;;;1.00;;
39140;SDS011;24875;48.436;10.298;2023-02-18T12:08:10;1.10;;;0.88;;
39140;SDS011;24875;48.436;10.298;2023-02-18T12:10:45;1.33;;;1.00;;
39140;SDS011;24875;48.436;10.298;2023-02-18T12:13:17;0.95;;;0.63;;
39140;SDS011;24875;48.436;10.298;2023-02-18T12:15:51;1.10;;;0.80;;
39140;SDS011;24875;48.436;10.298;2023-02-18T12:18:31;2.03;;;1.00;;
39140;SDS011;24875;48.436;10.298;2023-02-18T12:21:18;0.77;;;0.67;;
39140;SDS011;24875;48.436;10.298;2023-02-18T12:23:55;1.15;;;0.70;;
39140;SDS011;24875;48.436;10.298;2023-02-18T12:26:31;0.88;;;0.60;;
39140;SDS011;24875;48.436;10.298;2023-02-18T12:29:22;1.73;;;0.97;;
39140;SDS011;24875;48.436;10.298;2023-02-18T12:32:04;1.98;;;1.00;;
39140;SDS011;24875;48.436;10.298;2023-02-18T12:34:43;1.58;;;1.02;;
39140;SDS011;24875;48.436;10.298;2023-02-18T12:37:36;1.77;;;0.90;;
39140;SDS011;24875;48.436;10.298;2023-02-18T12:40:20;1.53;;;0.97;;
39140;SDS011;24875;48.436;10.298;2023-02-18T12:43:01;0.97;;;0.83;;
39140;SDS011;24875;48.436;10.298;2023-02-18T12:45:53;2.03;;;1.00;;
39140;SDS011;24875;48.436;10.298;2023-02-18T12:51:25;4.20;;;0.98;;
39140;SDS011;24875;48.436;10.298;2023-02-18T12:57:02;1.25;;;0.82;;
39140;SDS011;24875;48.436;10.298;2023-02-18T12:59:53;1.58;;;0.70;;
39140;SDS011;24875;48.436;10.298;2023-02-18T13:02:34;0.95;;;0.50;;
39140;SDS011;24875;48.436;10.298;2023-02-18T13:05:19;2.72;;;0.68;;
39140;SDS011;24875;48.436;10.298;2023-02-18T13:08:00;0.88;;;0.70;;
39140;SDS011;24875;48.436;10.298;2023-02-18T13:13:30;1.38;;;0.73;;
39140;SDS011;24875;48.436;10.298;2023-02-18T13:16:02;1.65;;;0.73;;
39140;SDS011;24875;48.436;10.298;2023-02-18T13:18:35;1.38;;;0.68;;
39140;SDS011;24875;48.436;10.298;2023-02-18T13:21:05;1.50;;;0.80;;
39140;SDS011;24875;48.436;10.298;2023-02-18T13:23:33;3.58;;;1.67;;
39140;SDS011;24875;48.436;10.298;2023-02-18T13:26:03;3.30;;;1.42;;
39140;SDS011;24875;48.436;10.298;2023-02-18T13:28:34;2.65;;;1.02;;
39140;SDS011;24875;48.436;10.298;2023-02-18T13:31:12;4.18;;;1.08;;
39140;SDS011;24875;48.436;10.298;2023-02-18T13:33:46;1.30;;;0.60;;
39140;SDS011;24875;48.436;10.298;2023-02-18T13:36:25;3.60;;;1.50;;
39140;SDS011;24875;48.436;10.298;2023-02-18T13:39:02;4.35;;;1.90;;
39140;SDS011;24875;48.436;10.298;2023-02-18T13:41:33;1.00;;;0.70;;
39140;SDS011;24875;48.436;10.298;2023-02-18T13:44:05;1.85;;;0.50;;
39140;SDS011;24875;48.436;10.298;2023-02-18T13:46:36;1.60;;;1.00;;
39140;SDS011;24875;48.436;10.298;2023-02-18T13:49:13;1.10;;;0.80;;
39140;SDS011;24875;48.436;10.298;2023-02-18T13:51:44;0.65;;;0.60;;
39140;SDS011;24875;48.436;10.298;2023-02-18T13:54:15;0.93;;;0.65;;
39140;SDS011;24875;48.436;10.298;2023-02-18T13:56:49;1.08;;;0.70;;
39140;SDS011;24875;48.436;10.298;2023-02-18T13:59:19;0.50;;;0.50;;
39140;SDS011;24875;48.436;10.298;2023-02-18T14:01:51;1.05;;;0.80;;
39140;SDS011;24875;48.436;10.298;2023-02-18T14:04:47;1.05;;;0.95;;
39140;SDS011;24875;48.436;10.298;2023-02-18T14:07:22;0.75;;;0.55;;
39140;SDS011;24875;48.436;10.298;2023-02-18T14:09:52;0.40;;;0.40;;
39140;SDS011;24875;48.436;10.298;2023-02-18T14:12:24;3.25;;;0.68;;
39140;SDS011;24875;48.436;10.298;2023-02-18T14:15:00;0.50;;;0.50;;
39140;SDS011;24875;48.436;10.298;2023-02-18T14:17:33;1.33;;;0.73;;
39140;SDS011;24875;48.436;10.298;2023-02-18T14:22:56;1.55;;;0.90;;
39140;SDS011;24875;48.436;10.298;2023-02-18T14:25:26;1.05;;;0.85;;
39140;SDS011;24875;48.436;10.298;2023-02-18T14:28:01;0.98;;;0.60;;
39140;SDS011;24875;48.436;10.298;2023-02-18T14:30:30;0.77;;;0.60;;
39140;SDS011;24875;48.436;10.298;2023-02-18T14:33:11;0.77;;;0.45;;
39140;SDS011;24875;48.436;10.298;2023-02-18T14:35:41;0.90;;;0.63;;
39140;SDS011;24875;48.436;10.298;2023-02-18T14:38:17;0.80;;;0.70;;
39140;SDS011;24875;48.436;10.298;2023-02-18T14:41:02;0.57;;;0.57;;
39140;SDS011;24875;48.436;10.298;2023-02-18T14:43:51;0.82;;;0.70;;
39140;SDS011;24875;48.436;10.298;2023-02-18T14:46:31;1.00;;;0.70;;
39140;SDS011;24875;48.436;10.298;2023-02-18T14:49:19;0.82;;;0.60;;
39140;SDS011;24875;48.436;10.298;2023-02-18T14:51:56;0.65;;;0.50;;
39140;SDS011;24875;48.436;10.298;2023-02-18T14:54:24;0.65;;;0.60;;
39140;SDS011;24875;48.436;10.298;2023-02-18T14:56:54;1.40;;;0.90;;
39140;SDS011;24875;48.436;10.298;2023-02-18T14:59:22;1.65;;;1.10;;
39140;SDS011;24875;48.436;10.298;2023-02-18T15:01:53;1.20;;;0.80;;
39140;SDS011;24875;48.436;10.298;2023-02-18T15:04:24;0.95;;;0.82;;
39140;SDS011;24875;48.436;10.298;2023-02-18T15:06:58;1.20;;;0.70;;
39140;SDS011;24875;48.436;10.298;2023-02-18T15:09:25;1.63;;;0.90;;